sensor_id;sensor_type;location;lat;lon;timestamp;P1;durP1;ratioP1;P2;durP2;ratioP2
21543;SDS011;10933;50.754;11.508;2023-05-24T00:01:45;7.13;;;4.43;;
21543;SDS011;10933;50.754;11.508;2023-05-24T00:04:12;5.47;;;4.97;;
21543;SDS011;10933;50.754;11.508;2023-05-24T00:06:39;10.47;;;5.43;;
21543;SDS011;10933;50.754;11.508;2023-05-24T00:09:06;5.77;;;5.37;;
21543;SDS011;10933;50.754;11.508;2023-05-24T00:11:32;5.17;;;4.77;;
21543;SDS011;10933;50.754;11.508;2023-05-24T00:13:58;5.53;;;5.03;;
21543;SDS011;10933;50.754;11.508;2023-05-24T00:16:25;7.80;;;4.90;;
21543;SDS011;10933;50.754;11.508;2023-05-24T00:18:51;6.30;;;5.00;;
21543;SDS011;10933;50.754;11.508;2023-05-24T00:21:18;5.43;;;5.00;;
21543;SDS011;10933;50.754;11.508;2023-05-24T00:23:45;5.97;;;5.47;;
21543;SDS011;10933;50.754;11.508;2023-05-24T00:26:11;5.93;;;5.43;;
21543;SDS011;10933;50.754;11.508;2023-05-24T00:28:37;5.47;;;5.07;;
21543;SDS011;10933;50.754;11.508;2023-05-24T00:31:03;6.07;;;5.43;;
21543;SDS011;10933;50.754;11.508;2023-05-24T00:33:30;6.33;;;5.80;;
21543;SDS011;10933;50.754;11.508;2023-05-24T00:35:56;5.50;;;4.97;;
21543;SDS011;10933;50.754;11.508;2023-05-24T00:38:23;6.93;;;5.27;;
21543;SDS011;10933;50.754;11.508;2023-05-24T00:40:50;5.50;;;4.80;;
21543;SDS011;10933;50.754;11.508;2023-05-24T00:43:17;6.30;;;5.70;;
21543;SDS011;10933;50.754;11.508;2023-05-24T00:45:43;11.43;;;5.33;;
21543;SDS011;10933;50.754;11.508;2023-05-24T00:48:09;6.77;;;4.80;;
21543;SDS011;10933;50.754;11.508;2023-05-24T00:50:39;5.73;;;5.23;;
21543;SDS011;10933;50.754;11.508;2023-05-24T00:53:06;12.87;;;5.53;;
21543;SDS011;10933;50.754;11.508;2023-05-24T00:55:33;5.67;;;4.40;;
21543;SDS011;10933;50.754;11.508;2023-05-24T00:58:00;5.73;;;5.17;;
21543;SDS011;10933;50.754;11.508;2023-05-24T01:00:27;6.57;;;5.40;;
21543;SDS011;10933;50.754;11.508;2023-05-24T01:02:54;10.03;;;5.70;;
21543;SDS011;10933;50.754;11.508;2023-05-24T01:05:21;5.60;;;5.20;;
21543;SDS011;10933;50.754;11.508;2023-05-24T01:08:05;7.47;;;5.40;;
21543;SDS011;10933;50.754;11.508;2023-05-24T01:13:47;5.47;;;5.07;;
21543;SDS011;10933;50.754;11.508;2023-05-24T01:16:19;8.10;;;5.00;;
21543;SDS011;10933;50.754;11.508;2023-05-24T01:19:01;5.43;;;5.03;;
21543;SDS011;10933;50.754;11.508;2023-05-24T01:21:53;5.33;;;4.83;;
21543;SDS011;10933;50.754;11.508;2023-05-24T01:27:37;9.43;;;5.40;;
21543;SDS011;10933;50.754;11.508;2023-05-24T01:30:04;6.43;;;5.23;;
21543;SDS011;10933;50.754;11.508;2023-05-24T01:32:31;6.63;;;5.00;;
21543;SDS011;10933;50.754;11.508;2023-05-24T01:34:58;10.07;;;4.50;;
21543;SDS011;10933;50.754;11.508;2023-05-24T01:37:24;16.23;;;5.20;;
21543;SDS011;10933;50.754;11.508;2023-05-24T01:39:50;11.17;;;4.90;;
21543;SDS011;10933;50.754;11.508;2023-05-24T01:44:46;7.87;;;5.20;;
21543;SDS011;10933;50.754;11.508;2023-05-24T01:49:53;5.27;;;4.77;;
21543;SDS011;10933;50.754;11.508;2023-05-24T01:52:26;5.33;;;4.93;;
21543;SDS011;10933;50.754;11.508;2023-05-24T01:54:56;5.03;;;4.53;;
21543;SDS011;10933;50.754;11.508;2023-05-24T01:57:24;8.67;;;4.20;;
21543;SDS011;10933;50.754;11.508;2023-05-24T01:59:52;8.53;;;4.43;;
21543;SDS011;10933;50.754;11.508;2023-05-24T02:02:19;6.57;;;4.80;;
21543;SDS011;10933;50.754;11.508;2023-05-24T02:04:46;4.67;;;4.23;;
21543;SDS011;10933;50.754;11.508;2023-05-24T02:07:12;5.57;;;4.23;;
21543;SDS011;10933;50.754;11.508;2023-05-24T02:09:38;7.33;;;4.30;;
21543;SDS011;10933;50.754;11.508;2023-05-24T02:12:04;6.03;;;3.73;;
21543;SDS011;10933;50.754;11.508;2023-05-24T02:14:31;14.00;;;4.00;;
21543;SDS011;10933;50.754;11.508;2023-05-24T02:16:59;6.10;;;3.83;;
21543;SDS011;10933;50.754;11.508;2023-05-24T02:19:26;7.17;;;3.63;;
21543;SDS011;10933;50.754;11.508;2023-05-24T02:21:52;10.50;;;4.73;;
21543;SDS011;10933;50.754;11.508;2023-05-24T02:24:19;6.97;;;4.10;;
21543;SDS011;10933;50.754;11.508;2023-05-24T02:26:45;6.73;;;3.33;;
21543;SDS011;10933;50.754;11.508;2023-05-24T02:29:11;4.93;;;3.37;;
21543;SDS011;10933;50.754;11.508;2023-05-24T02:31:37;7.87;;;3.80;;
21543;SDS011;10933;50.754;11.508;2023-05-24T02:34:03;4.70;;;3.57;;
21543;SDS011;10933;50.754;11.508;2023-05-24T02:36:30;5.13;;;3.80;;
21543;SDS011;10933;50.754;11.508;2023-05-24T02:38:58;4.77;;;3.33;;
21543;SDS011;10933;50.754;11.508;2023-05-24T02:41:24;5.63;;;3.17;;
21543;SDS011;10933;50.754;11.508;2023-05-24T02:43:50;6.83;;;3.67;;
21543;SDS011;10933;50.754;11.508;2023-05-24T02:46:16;12.03;;;3.50;;
21543;SDS011;10933;50.754;11.508;2023-05-24T02:48:43;11.27;;;3.90;;
21543;SDS011;10933;50.754;11.508;2023-05-24T02:51:09;6.30;;;3.90;;
21543;SDS011;10933;50.754;11.508;2023-05-24T02:53:35;15.60;;;6.10;;
21543;SDS011;10933;50.754;11.508;2023-05-24T02:56:01;8.40;;;4.33;;
21543;SDS011;10933;50.754;11.508;2023-05-24T02:58:27;7.07;;;5.10;;
21543;SDS011;10933;50.754;11.508;2023-05-24T03:00:54;44.63;;;5.67;;
21543;SDS011;10933;50.754;11.508;2023-05-24T03:03:20;7.23;;;3.70;;
21543;SDS011;10933;50.754;11.508;2023-05-24T03:05:47;5.20;;;3.53;;
21543;SDS011;10933;50.754;11.508;2023-05-24T03:08:13;5.83;;;3.23;;
21543;SDS011;10933;50.754;11.508;2023-05-24T03:10:39;9.97;;;3.30;;
21543;SDS011;10933;50.754;11.508;2023-05-24T03:13:05;5.03;;;2.73;;
21543;SDS011;10933;50.754;11.508;2023-05-24T03:15:31;4.93;;;3.17;;
21543;SDS011;10933;50.754;11.508;2023-05-24T03:17:57;20.33;;;3.40;;
21543;SDS011;10933;50.754;11.508;2023-05-24T03:20:23;9.13;;;3.00;;
21543;SDS011;10933;50.754;11.508;2023-05-24T03:22:50;5.53;;;3.20;;
21543;SDS011;10933;50.754;11.508;2023-05-24T03:25:16;5.80;;;3.00;;
21543;SDS011;10933;50.754;11.508;2023-05-24T03:27:42;4.23;;;3.30;;
21543;SDS011;10933;50.754;11.508;2023-05-24T03:30:08;4.37;;;2.90;;
21543;SDS011;10933;50.754;11.508;2023-05-24T03:32:35;5.53;;;3.30;;
21543;SDS011;10933;50.754;11.508;2023-05-24T03:35:01;4.83;;;2.90;;
21543;SDS011;10933;50.754;11.508;2023-05-24T03:37:27;3.57;;;2.60;;
21543;SDS011;10933;50.754;11.508;2023-05-24T03:39:53;9.50;;;2.50;;
21543;SDS011;10933;50.754;11.508;2023-05-24T03:42:19;4.33;;;3.03;;
21543;SDS011;10933;50.754;11.508;2023-05-24T03:44:46;8.97;;;2.63;;
21543;SDS011;10933;50.754;11.508;2023-05-24T03:47:12;4.30;;;2.50;;
21543;SDS011;10933;50.754;11.508;2023-05-24T03:49:38;4.87;;;3.03;;
21543;SDS011;10933;50.754;11.508;2023-05-24T03:52:04;5.00;;;2.20;;
21543;SDS011;10933;50.754;11.508;2023-05-24T03:54:30;2.00;;;1.80;;
21543;SDS011;10933;50.754;11.508;2023-05-24T03:56:57;7.90;;;2.50;;
21543;SDS011;10933;50.754;11.508;2023-05-24T03:59:23;3.53;;;2.00;;
21543;SDS011;10933;50.754;11.508;2023-05-24T04:01:49;3.30;;;2.37;;
21543;SDS011;10933;50.754;11.508;2023-05-24T04:04:15;2.30;;;1.40;;
21543;SDS011;10933;50.754;11.508;2023-05-24T04:06:41;1.57;;;1.33;;
21543;SDS011;10933;50.754;11.508;2023-05-24T04:09:08;1.60;;;1.10;;
21543;SDS011;10933;50.754;11.508;2023-05-24T04:11:34;2.00;;;1.10;;
21543;SDS011;10933;50.754;11.508;2023-05-24T04:14:01;1.63;;;1.10;;
21543;SDS011;10933;50.754;11.508;2023-05-24T04:16:28;1.30;;;0.90;;
21543;SDS011;10933;50.754;11.508;2023-05-24T04:18:58;1.40;;;0.93;;
21543;SDS011;10933;50.754;11.508;2023-05-24T04:21:28;1.10;;;1.00;;
21543;SDS011;10933;50.754;11.508;2023-05-24T04:23:55;2.23;;;1.20;;
21543;SDS011;10933;50.754;11.508;2023-05-24T04:26:24;4.33;;;1.40;;
21543;SDS011;10933;50.754;11.508;2023-05-24T04:28:50;1.43;;;1.10;;
21543;SDS011;10933;50.754;11.508;2023-05-24T04:31:16;1.70;;;1.13;;
21543;SDS011;10933;50.754;11.508;2023-05-24T04:33:44;2.03;;;1.40;;
21543;SDS011;10933;50.754;11.508;2023-05-24T04:36:11;1.87;;;1.03;;
21543;SDS011;10933;50.754;11.508;2023-05-24T04:38:38;2.10;;;1.20;;
21543;SDS011;10933;50.754;11.508;2023-05-24T04:41:05;2.07;;;1.03;;
21543;SDS011;10933;50.754;11.508;2023-05-24T04:43:31;1.43;;;1.10;;
21543;SDS011;10933;50.754;11.508;2023-05-24T04:45:58;1.57;;;1.13;;
21543;SDS011;10933;50.754;11.508;2023-05-24T04:48:25;2.07;;;0.90;;
21543;SDS011;10933;50.754;11.508;2023-05-24T04:50:51;1.43;;;0.93;;
21543;SDS011;10933;50.754;11.508;2023-05-24T04:53:18;3.70;;;1.40;;
21543;SDS011;10933;50.754;11.508;2023-05-24T04:55:45;1.77;;;1.57;;
21543;SDS011;10933;50.754;11.508;2023-05-24T04:58:12;5.57;;;1.53;;
21543;SDS011;10933;50.754;11.508;2023-05-24T05:00:40;2.07;;;1.20;;
21543;SDS011;10933;50.754;11.508;2023-05-24T05:03:07;1.70;;;1.23;;
21543;SDS011;10933;50.754;11.508;2023-05-24T05:05:33;1.77;;;1.20;;
21543;SDS011;10933;50.754;11.508;2023-05-24T05:07:59;1.07;;;0.97;;
21543;SDS011;10933;50.754;11.508;2023-05-24T05:10:26;1.00;;;1.00;;
21543;SDS011;10933;50.754;11.508;2023-05-24T05:12:52;1.30;;;1.10;;
21543;SDS011;10933;50.754;11.508;2023-05-24T05:15:22;5.07;;;1.30;;
21543;SDS011;10933;50.754;11.508;2023-05-24T05:17:48;1.93;;;1.03;;
21543;SDS011;10933;50.754;11.508;2023-05-24T05:20:15;1.60;;;1.17;;
21543;SDS011;10933;50.754;11.508;2023-05-24T05:22:47;1.33;;;0.90;;
21543;SDS011;10933;50.754;11.508;2023-05-24T05:25:13;1.13;;;0.97;;
21543;SDS011;10933;50.754;11.508;2023-05-24T05:27:40;4.93;;;1.30;;
21543;SDS011;10933;50.754;11.508;2023-05-24T05:30:06;1.75;;;1.33;;
21543;SDS011;10933;50.754;11.508;2023-05-24T05:32:33;1.07;;;0.87;;
21543;SDS011;10933;50.754;11.508;2023-05-24T05:35:01;1.30;;;1.20;;
21543;SDS011;10933;50.754;11.508;2023-05-24T05:37:27;1.00;;;0.90;;
21543;SDS011;10933;50.754;11.508;2023-05-24T05:39:55;1.97;;;1.67;;
21543;SDS011;10933;50.754;11.508;2023-05-24T05:42:21;1.85;;;1.05;;
21543;SDS011;10933;50.754;11.508;2023-05-24T05:44:47;1.23;;;1.13;;
21543;SDS011;10933;50.754;11.508;2023-05-24T05:47:13;3.17;;;1.70;;
21543;SDS011;10933;50.754;11.508;2023-05-24T05:49:39;1.20;;;0.90;;
21543;SDS011;10933;50.754;11.508;2023-05-24T05:52:05;2.05;;;1.27;;
21543;SDS011;10933;50.754;11.508;2023-05-24T05:54:32;3.65;;;1.52;;
21543;SDS011;10933;50.754;11.508;2023-05-24T05:56:58;2.27;;;1.80;;
21543;SDS011;10933;50.754;11.508;2023-05-24T05:59:24;2.27;;;1.50;;
21543;SDS011;10933;50.754;11.508;2023-05-24T06:01:50;3.23;;;1.17;;
21543;SDS011;10933;50.754;11.508;2023-05-24T06:04:17;2.15;;;1.10;;
21543;SDS011;10933;50.754;11.508;2023-05-24T06:06:43;2.47;;;1.50;;
21543;SDS011;10933;50.754;11.508;2023-05-24T06:09:13;1.50;;;1.13;;
21543;SDS011;10933;50.754;11.508;2023-05-24T06:11:40;1.70;;;1.17;;
21543;SDS011;10933;50.754;11.508;2023-05-24T06:14:09;1.77;;;1.35;;
21543;SDS011;10933;50.754;11.508;2023-05-24T06:16:36;0.93;;;0.90;;
21543;SDS011;10933;50.754;11.508;2023-05-24T06:19:07;4.30;;;1.20;;
21543;SDS011;10933;50.754;11.508;2023-05-24T06:21:34;1.17;;;1.07;;
21543;SDS011;10933;50.754;11.508;2023-05-24T06:24:01;1.10;;;1.00;;
21543;SDS011;10933;50.754;11.508;2023-05-24T06:26:33;7.13;;;2.73;;
21543;SDS011;10933;50.754;11.508;2023-05-24T06:29:01;2.95;;;2.17;;
21543;SDS011;10933;50.754;11.508;2023-05-24T06:31:28;2.43;;;1.70;;
21543;SDS011;10933;50.754;11.508;2023-05-24T06:33:54;2.28;;;1.73;;
21543;SDS011;10933;50.754;11.508;2023-05-24T06:36:20;11.90;;;2.22;;
21543;SDS011;10933;50.754;11.508;2023-05-24T06:38:50;1.65;;;1.20;;
21543;SDS011;10933;50.754;11.508;2023-05-24T06:41:16;5.68;;;1.30;;
21543;SDS011;10933;50.754;11.508;2023-05-24T06:43:42;1.42;;;1.33;;
21543;SDS011;10933;50.754;11.508;2023-05-24T06:46:12;1.63;;;0.88;;
21543;SDS011;10933;50.754;11.508;2023-05-24T06:48:38;3.05;;;1.20;;
21543;SDS011;10933;50.754;11.508;2023-05-24T06:51:04;1.40;;;1.30;;
21543;SDS011;10933;50.754;11.508;2023-05-24T06:53:31;1.98;;;1.27;;
21543;SDS011;10933;50.754;11.508;2023-05-24T06:55:57;1.85;;;1.08;;
21543;SDS011;10933;50.754;11.508;2023-05-24T06:58:23;6.10;;;1.80;;
21543;SDS011;10933;50.754;11.508;2023-05-24T07:00:49;2.00;;;1.50;;
21543;SDS011;10933;50.754;11.508;2023-05-24T07:03:16;1.85;;;1.30;;
21543;SDS011;10933;50.754;11.508;2023-05-24T07:05:42;2.15;;;1.40;;
21543;SDS011;10933;50.754;11.508;2023-05-24T07:08:08;1.50;;;1.40;;
21543;SDS011;10933;50.754;11.508;2023-05-24T07:10:34;1.27;;;1.15;;
21543;SDS011;10933;50.754;11.508;2023-05-24T07:13:00;1.30;;;1.20;;
21543;SDS011;10933;50.754;11.508;2023-05-24T07:15:27;3.72;;;1.25;;
21543;SDS011;10933;50.754;11.508;2023-05-24T07:17:54;1.70;;;1.50;;
21543;SDS011;10933;50.754;11.508;2023-05-24T07:20:20;5.63;;;1.33;;
21543;SDS011;10933;50.754;11.508;2023-05-24T07:22:46;1.85;;;1.13;;
21543;SDS011;10933;50.754;11.508;2023-05-24T07:25:12;1.30;;;1.20;;
21543;SDS011;10933;50.754;11.508;2023-05-24T07:27:38;2.35;;;1.50;;
21543;SDS011;10933;50.754;11.508;2023-05-24T07:30:05;2.83;;;1.50;;
21543;SDS011;10933;50.754;11.508;2023-05-24T07:32:31;1.40;;;1.27;;
21543;SDS011;10933;50.754;11.508;2023-05-24T07:34:58;2.92;;;1.30;;
21543;SDS011;10933;50.754;11.508;2023-05-24T07:37:24;2.88;;;1.63;;
21543;SDS011;10933;50.754;11.508;2023-05-24T07:39:51;2.88;;;1.60;;
21543;SDS011;10933;50.754;11.508;2023-05-24T07:42:17;2.20;;;2.00;;
21543;SDS011;10933;50.754;11.508;2023-05-24T07:44:43;3.13;;;1.40;;
21543;SDS011;10933;50.754;11.508;2023-05-24T07:47:09;1.33;;;1.08;;
21543;SDS011;10933;50.754;11.508;2023-05-24T07:49:36;1.83;;;1.20;;
21543;SDS011;10933;50.754;11.508;2023-05-24T07:52:02;1.85;;;1.30;;
21543;SDS011;10933;50.754;11.508;2023-05-24T07:54:30;2.78;;;1.83;;
21543;SDS011;10933;50.754;11.508;2023-05-24T07:56:56;2.60;;;1.48;;
21543;SDS011;10933;50.754;11.508;2023-05-24T07:59:22;6.03;;;1.20;;
21543;SDS011;10933;50.754;11.508;2023-05-24T08:01:48;2.33;;;1.00;;
21543;SDS011;10933;50.754;11.508;2023-05-24T08:04:15;1.83;;;1.25;;
21543;SDS011;10933;50.754;11.508;2023-05-24T08:06:41;1.65;;;1.15;;
21543;SDS011;10933;50.754;11.508;2023-05-24T08:09:07;1.90;;;0.90;;
21543;SDS011;10933;50.754;11.508;2023-05-24T08:11:33;2.72;;;1.85;;
21543;SDS011;10933;50.754;11.508;2023-05-24T08:14:00;2.75;;;1.13;;
21543;SDS011;10933;50.754;11.508;2023-05-24T08:16:26;2.10;;;1.38;;
21543;SDS011;10933;50.754;11.508;2023-05-24T08:18:52;1.42;;;1.27;;
21543;SDS011;10933;50.754;11.508;2023-05-24T08:21:18;1.33;;;1.00;;
21543;SDS011;10933;50.754;11.508;2023-05-24T08:23:45;1.73;;;1.63;;
21543;SDS011;10933;50.754;11.508;2023-05-24T08:26:11;5.13;;;1.77;;
21543;SDS011;10933;50.754;11.508;2023-05-24T08:28:37;2.42;;;1.58;;
21543;SDS011;10933;50.754;11.508;2023-05-24T08:31:03;2.50;;;1.90;;
21543;SDS011;10933;50.754;11.508;2023-05-24T08:33:30;1.30;;;1.20;;
21543;SDS011;10933;50.754;11.508;2023-05-24T08:35:56;1.85;;;1.67;;
21543;SDS011;10933;50.754;11.508;2023-05-24T08:38:22;2.72;;;1.80;;
21543;SDS011;10933;50.754;11.508;2023-05-24T08:40:49;1.38;;;1.27;;
21543;SDS011;10933;50.754;11.508;2023-05-24T08:43:15;1.85;;;1.30;;
21543;SDS011;10933;50.754;11.508;2023-05-24T08:45:42;1.98;;;1.10;;
21543;SDS011;10933;50.754;11.508;2023-05-24T08:48:09;3.67;;;1.48;;
21543;SDS011;10933;50.754;11.508;2023-05-24T08:50:37;1.35;;;1.25;;
21543;SDS011;10933;50.754;11.508;2023-05-24T08:53:05;2.08;;;1.40;;
21543;SDS011;10933;50.754;11.508;2023-05-24T08:55:32;1.30;;;0.93;;
21543;SDS011;10933;50.754;11.508;2023-05-24T08:58:00;4.45;;;1.25;;
21543;SDS011;10933;50.754;11.508;2023-05-24T09:00:26;3.50;;;1.70;;
21543;SDS011;10933;50.754;11.508;2023-05-24T09:02:52;2.08;;;1.48;;
21543;SDS011;10933;50.754;11.508;2023-05-24T09:05:20;5.65;;;1.75;;
21543;SDS011;10933;50.754;11.508;2023-05-24T09:07:47;2.30;;;1.33;;
21543;SDS011;10933;50.754;11.508;2023-05-24T09:10:14;1.88;;;1.17;;
21543;SDS011;10933;50.754;11.508;2023-05-24T09:12:44;1.63;;;1.10;;
21543;SDS011;10933;50.754;11.508;2023-05-24T09:15:15;1.52;;;1.27;;
21543;SDS011;10933;50.754;11.508;2023-05-24T09:17:42;1.77;;;1.35;;
21543;SDS011;10933;50.754;11.508;2023-05-24T09:20:11;1.85;;;1.17;;
21543;SDS011;10933;50.754;11.508;2023-05-24T09:22:39;2.17;;;1.40;;
21543;SDS011;10933;50.754;11.508;2023-05-24T09:25:06;1.52;;;1.13;;
21543;SDS011;10933;50.754;11.508;2023-05-24T09:27:40;1.23;;;1.10;;
21543;SDS011;10933;50.754;11.508;2023-05-24T09:30:07;1.67;;;1.40;;
21543;SDS011;10933;50.754;11.508;2023-05-24T09:32:34;2.65;;;1.55;;
21543;SDS011;10933;50.754;11.508;2023-05-24T09:35:00;2.08;;;1.60;;
21543;SDS011;10933;50.754;11.508;2023-05-24T09:37:27;2.47;;;1.52;;
21543;SDS011;10933;50.754;11.508;2023-05-24T09:39:53;4.68;;;1.60;;
21543;SDS011;10933;50.754;11.508;2023-05-24T09:42:23;1.48;;;1.00;;
21543;SDS011;10933;50.754;11.508;2023-05-24T09:47:28;1.52;;;1.38;;
21543;SDS011;10933;50.754;11.508;2023-05-24T09:49:55;3.55;;;1.30;;
21543;SDS011;10933;50.754;11.508;2023-05-24T09:52:21;2.42;;;0.93;;
21543;SDS011;10933;50.754;11.508;2023-05-24T09:54:47;2.75;;;1.73;;
21543;SDS011;10933;50.754;11.508;2023-05-24T09:57:17;1.75;;;1.40;;
21543;SDS011;10933;50.754;11.508;2023-05-24T09:59:46;3.40;;;1.83;;
21543;SDS011;10933;50.754;11.508;2023-05-24T10:02:16;1.98;;;1.40;;
21543;SDS011;10933;50.754;11.508;2023-05-24T10:04:46;1.58;;;1.15;;
21543;SDS011;10933;50.754;11.508;2023-05-24T10:07:13;2.90;;;1.20;;
21543;SDS011;10933;50.754;11.508;2023-05-24T10:09:40;3.42;;;1.33;;
21543;SDS011;10933;50.754;11.508;2023-05-24T10:12:08;2.30;;;1.15;;
21543;SDS011;10933;50.754;11.508;2023-05-24T10:14:35;1.67;;;1.20;;
21543;SDS011;10933;50.754;11.508;2023-05-24T10:17:03;1.48;;;1.10;;
21543;SDS011;10933;50.754;11.508;2023-05-24T10:19:33;1.98;;;1.42;;
21543;SDS011;10933;50.754;11.508;2023-05-24T10:22:00;2.55;;;1.17;;
21543;SDS011;10933;50.754;11.508;2023-05-24T10:24:41;1.27;;;1.15;;
21543;SDS011;10933;50.754;11.508;2023-05-24T10:27:12;1.95;;;1.27;;
21543;SDS011;10933;50.754;11.508;2023-05-24T10:30:07;1.52;;;1.33;;
21543;SDS011;10933;50.754;11.508;2023-05-24T10:32:33;1.77;;;1.08;;
21543;SDS011;10933;50.754;11.508;2023-05-24T10:35:03;1.30;;;1.00;;
21543;SDS011;10933;50.754;11.508;2023-05-24T10:37:31;0.75;;;0.63;;
21543;SDS011;10933;50.754;11.508;2023-05-24T10:39:58;1.67;;;0.90;;
21543;SDS011;10933;50.754;11.508;2023-05-24T10:42:25;1.02;;;0.95;;
21543;SDS011;10933;50.754;11.508;2023-05-24T10:44:55;2.22;;;1.10;;
21543;SDS011;10933;50.754;11.508;2023-05-24T10:47:21;1.10;;;0.80;;
21543;SDS011;10933;50.754;11.508;2023-05-24T10:49:55;1.38;;;1.05;;
21543;SDS011;10933;50.754;11.508;2023-05-24T10:52:33;1.13;;;0.95;;
21543;SDS011;10933;50.754;11.508;2023-05-24T10:55:06;1.10;;;0.90;;
21543;SDS011;10933;50.754;11.508;2023-05-24T10:57:33;2.75;;;1.00;;
21543;SDS011;10933;50.754;11.508;2023-05-24T11:02:49;2.38;;;1.17;;
21543;SDS011;10933;50.754;11.508;2023-05-24T11:05:23;1.52;;;0.80;;
21543;SDS011;10933;50.754;11.508;2023-05-24T11:07:49;1.50;;;0.90;;
21543;SDS011;10933;50.754;11.508;2023-05-24T11:10:30;1.65;;;1.00;;
21543;SDS011;10933;50.754;11.508;2023-05-24T11:12:59;1.15;;;0.90;;
21543;SDS011;10933;50.754;11.508;2023-05-24T11:15:26;1.50;;;0.88;;
21543;SDS011;10933;50.754;11.508;2023-05-24T11:20:41;1.83;;;0.90;;
21543;SDS011;10933;50.754;11.508;2023-05-24T11:23:12;1.23;;;0.90;;
21543;SDS011;10933;50.754;11.508;2023-05-24T11:25:39;1.00;;;0.68;;
21543;SDS011;10933;50.754;11.508;2023-05-24T11:28:07;1.38;;;0.75;;
21543;SDS011;10933;50.754;11.508;2023-05-24T11:30:41;1.85;;;1.00;;
21543;SDS011;10933;50.754;11.508;2023-05-24T11:33:12;1.40;;;1.30;;
21543;SDS011;10933;50.754;11.508;2023-05-24T11:35:43;1.17;;;0.80;;
21543;SDS011;10933;50.754;11.508;2023-05-24T11:38:19;3.00;;;0.88;;
21543;SDS011;10933;50.754;11.508;2023-05-24T11:40:46;2.25;;;1.00;;
21543;SDS011;10933;50.754;11.508;2023-05-24T11:45:45;1.10;;;0.98;;
21543;SDS011;10933;50.754;11.508;2023-05-24T11:48:17;1.15;;;0.85;;
21543;SDS011;10933;50.754;11.508;2023-05-24T11:50:44;1.23;;;0.90;;
21543;SDS011;10933;50.754;11.508;2023-05-24T11:53:13;1.73;;;1.20;;
21543;SDS011;10933;50.754;11.508;2023-05-24T11:55:41;1.35;;;0.90;;
21543;SDS011;10933;50.754;11.508;2023-05-24T11:58:49;1.55;;;1.05;;
21543;SDS011;10933;50.754;11.508;2023-05-24T12:01:02;1.15;;;1.00;;
21543;SDS011;10933;50.754;11.508;2023-05-24T12:03:28;1.33;;;1.10;;
21543;SDS011;10933;50.754;11.508;2023-05-24T12:05:55;1.05;;;0.95;;
21543;SDS011;10933;50.754;11.508;2023-05-24T12:10:58;1.08;;;0.80;;
21543;SDS011;10933;50.754;11.508;2023-05-24T12:16:14;3.53;;;1.08;;
21543;SDS011;10933;50.754;11.508;2023-05-24T12:18:41;6.00;;;1.10;;
21543;SDS011;10933;50.754;11.508;2023-05-24T12:21:08;1.77;;;1.35;;
21543;SDS011;10933;50.754;11.508;2023-05-24T12:23:38;2.88;;;1.20;;
21543;SDS011;10933;50.754;11.508;2023-05-24T12:26:04;4.57;;;0.93;;
21543;SDS011;10933;50.754;11.508;2023-05-24T12:28:34;1.25;;;0.90;;
21543;SDS011;10933;50.754;11.508;2023-05-24T12:31:03;1.20;;;1.10;;
21543;SDS011;10933;50.754;11.508;2023-05-24T12:33:30;1.35;;;0.85;;
21543;SDS011;10933;50.754;11.508;2023-05-24T12:35:56;1.98;;;1.23;;
21543;SDS011;10933;50.754;11.508;2023-05-24T12:38:26;1.85;;;1.20;;
21543;SDS011;10933;50.754;11.508;2023-05-24T12:44:27;2.03;;;0.90;;
21543;SDS011;10933;50.754;11.508;2023-05-24T12:46:55;4.38;;;0.80;;
21543;SDS011;10933;50.754;11.508;2023-05-24T12:49:22;1.25;;;0.90;;
21543;SDS011;10933;50.754;11.508;2023-05-24T12:51:49;2.03;;;1.25;;
21543;SDS011;10933;50.754;11.508;2023-05-24T12:54:17;1.33;;;0.93;;
21543;SDS011;10933;50.754;11.508;2023-05-24T12:56:46;1.02;;;0.90;;
21543;SDS011;10933;50.754;11.508;2023-05-24T12:59:13;1.92;;;1.20;;
21543;SDS011;10933;50.754;11.508;2023-05-24T13:01:39;2.25;;;1.30;;
21543;SDS011;10933;50.754;11.508;2023-05-24T13:04:05;1.50;;;1.02;;
21543;SDS011;10933;50.754;11.508;2023-05-24T13:06:32;0.98;;;0.70;;
21543;SDS011;10933;50.754;11.508;2023-05-24T13:08:58;1.13;;;1.00;;
21543;SDS011;10933;50.754;11.508;2023-05-24T13:11:25;1.52;;;0.90;;
21543;SDS011;10933;50.754;11.508;2023-05-24T13:13:52;2.05;;;1.10;;
21543;SDS011;10933;50.754;11.508;2023-05-24T13:16:19;1.60;;;1.10;;
21543;SDS011;10933;50.754;11.508;2023-05-24T13:18:45;1.10;;;0.93;;
21543;SDS011;10933;50.754;11.508;2023-05-24T13:21:11;2.15;;;1.00;;
21543;SDS011;10933;50.754;11.508;2023-05-24T13:23:37;3.75;;;1.13;;
21543;SDS011;10933;50.754;11.508;2023-05-24T13:26:04;5.22;;;1.75;;
21543;SDS011;10933;50.754;11.508;2023-05-24T13:28:31;1.17;;;1.02;;
21543;SDS011;10933;50.754;11.508;2023-05-24T13:30:58;1.35;;;1.25;;
21543;SDS011;10933;50.754;11.508;2023-05-24T13:33:25;1.13;;;0.95;;
21543;SDS011;10933;50.754;11.508;2023-05-24T13:35:54;1.95;;;1.27;;
21543;SDS011;10933;50.754;11.508;2023-05-24T13:38:20;1.83;;;1.00;;
21543;SDS011;10933;50.754;11.508;2023-05-24T13:40:47;1.95;;;1.13;;
21543;SDS011;10933;50.754;11.508;2023-05-24T13:43:14;2.83;;;1.10;;
21543;SDS011;10933;50.754;11.508;2023-05-24T13:45:40;0.80;;;0.80;;
21543;SDS011;10933;50.754;11.508;2023-05-24T13:48:06;2.67;;;1.13;;
21543;SDS011;10933;50.754;11.508;2023-05-24T13:50:33;1.35;;;1.08;;
21543;SDS011;10933;50.754;11.508;2023-05-24T13:53:00;1.33;;;1.00;;
21543;SDS011;10933;50.754;11.508;2023-05-24T13:55:31;1.40;;;0.90;;
21543;SDS011;10933;50.754;11.508;2023-05-24T13:57:59;1.13;;;0.75;;
21543;SDS011;10933;50.754;11.508;2023-05-24T14:00:26;2.20;;;1.30;;
21543;SDS011;10933;50.754;11.508;2023-05-24T14:02:52;2.22;;;1.00;;
21543;SDS011;10933;50.754;11.508;2023-05-24T14:05:19;3.08;;;1.20;;
21543;SDS011;10933;50.754;11.508;2023-05-24T14:07:46;1.67;;;0.98;;
21543;SDS011;10933;50.754;11.508;2023-05-24T14:10:13;2.35;;;1.25;;
21543;SDS011;10933;50.754;11.508;2023-05-24T14:12:39;1.08;;;0.93;;
21543;SDS011;10933;50.754;11.508;2023-05-24T14:15:06;2.42;;;1.27;;
21543;SDS011;10933;50.754;11.508;2023-05-24T14:17:33;2.13;;;1.50;;
21543;SDS011;10933;50.754;11.508;2023-05-24T14:19:59;1.42;;;1.10;;
21543;SDS011;10933;50.754;11.508;2023-05-24T14:22:25;1.48;;;1.13;;
21543;SDS011;10933;50.754;11.508;2023-05-24T14:24:53;1.55;;;1.23;;
21543;SDS011;10933;50.754;11.508;2023-05-24T14:27:19;1.20;;;0.90;;
21543;SDS011;10933;50.754;11.508;2023-05-24T14:29:46;1.65;;;1.13;;
21543;SDS011;10933;50.754;11.508;2023-05-24T14:32:12;1.20;;;0.80;;
21543;SDS011;10933;50.754;11.508;2023-05-24T14:34:40;1.58;;;1.00;;
21543;SDS011;10933;50.754;11.508;2023-05-24T14:37:07;3.63;;;1.70;;
21543;SDS011;10933;50.754;11.508;2023-05-24T14:39:33;1.92;;;1.20;;
21543;SDS011;10933;50.754;11.508;2023-05-24T14:41:59;2.67;;;1.40;;
21543;SDS011;10933;50.754;11.508;2023-05-24T14:44:25;2.08;;;1.10;;
21543;SDS011;10933;50.754;11.508;2023-05-24T14:46:52;1.95;;;1.17;;
21543;SDS011;10933;50.754;11.508;2023-05-24T14:49:18;1.20;;;1.10;;
21543;SDS011;10933;50.754;11.508;2023-05-24T14:51:45;4.50;;;1.35;;
21543;SDS011;10933;50.754;11.508;2023-05-24T14:54:15;1.50;;;1.20;;
21543;SDS011;10933;50.754;11.508;2023-05-24T14:56:41;1.98;;;1.35;;
21543;SDS011;10933;50.754;11.508;2023-05-24T14:59:07;1.90;;;1.23;;
21543;SDS011;10933;50.754;11.508;2023-05-24T15:01:34;1.80;;;1.20;;
21543;SDS011;10933;50.754;11.508;2023-05-24T15:04:00;3.55;;;1.38;;
21543;SDS011;10933;50.754;11.508;2023-05-24T15:06:27;2.05;;;1.30;;